Bronte, Texas
Current Conditions -  °F | °C
As of 3:51 PM on Sunday 21 Dec 2014 (Local Time) from KSJT Reporting Station
Clear Clear  
Wind Chill: 63°   Ceiling: Unl
Heat Index: 63°   Visibility: 10mi
Dew Point: 41°   Wind: 18mph
Humidity: 45%   Direction: 210°SSW
Pressure: 29.8"   Gusts: 24mph
Location:  31.89°N, 100.29°W
Report Text: KSJT 212151Z 21016G21KT 10SM CLR 17/05 A2980 RMK AO2 SLP085 T01720050
Loading
Personal Weather Stations






























Interactive Weather Map New forecast layout! Learn more

10-Day Weather Forecast

Advertisements
Track Severe Weather on mobile